Dunmow, United Kingdom
Current Conditions -  °F | °C
As of 12:20 AM on Friday 28 Nov 2014 (Local Time) from EGSS Reporting Station
Haze Haze  
Wind Chill: 50°   Ceiling: 100
Heat Index: 50°   Visibility: 1mi
Dew Point: 50°   Wind: 8mph
Humidity: 100%   Direction: 110°ESE
Pressure: 29.59"   Gusts: NA
Location:  51.87°N, 0.36°E
Report Text: EGSS 280020Z 11007KT 1600 BR OVC001 10/10 Q1002
Loading
Personal Weather Stations






























Interactive Weather Map New forecast layout! Learn more

10-Day Weather Forecast

Advertisements
Track Severe Weather on mobile